Time;durP1;ratioP1;P1;durP2;ratioP2;P2;SDS_P1;SDS_P2;PMS_P1;PMS_P2;Temp;Humidity;BMP_temperature;BMP_pressure;BME280_temperature;BME280_humidity;BME280_pressure;Samples;Min_cycle;Max_cycle;Signal;HPM_P1;HPM_P2
2021/06/07 00:02:40;;;;;;;60.10;37.07;;;18.80;99.60;;;;;;8403972;28;20205;-75
2021/06/07 00:06:40;;;;;;;57.37;38.97;;;18.80;99.60;;;;;;8400255;28;20476;-77
2021/06/07 00:10:42;;;;;;;58.40;36.07;;;18.80;99.60;;;;;;8407374;28;20552;-74
2021/06/07 00:14:43;;;;;;;60.80;40.07;;;18.80;99.60;;;;;;8407157;28;20549;-75
2021/06/07 00:18:44;;;;;;;60.30;40.77;;;18.80;99.70;;;;;;8403016;28;20446;-76
2021/06/07 00:22:45;;;;;;;62.70;40.87;;;18.80;99.70;;;;;;8402481;28;20862;-76
2021/06/07 00:26:49;;;;;;;56.50;38.03;;;18.70;99.80;;;;;;8403462;28;20177;-76
2021/06/07 00:30:50;;;;;;;66.40;41.67;;;18.70;99.90;;;;;;8402979;28;20195;-76
2021/06/07 00:34:51;;;;;;;61.53;41.87;;;18.70;99.90;;;;;;8398110;28;20521;-75
2021/06/07 00:38:52;;;;;;;61.60;40.80;;;18.70;99.90;;;;;;8400237;28;20438;-76
2021/06/07 00:43:00;;;;;;;57.90;38.90;;;18.70;99.90;;;;;;8404938;28;20636;-77
2021/06/07 00:47:02;;;;;;;61.10;38.10;;;18.70;99.90;;;;;;8399867;28;21035;-76
2021/06/07 00:51:09;;;;;;;64.43;41.13;;;18.80;99.90;;;;;;8400291;28;20460;-76
2021/06/07 00:55:10;;;;;;;64.67;43.67;;;18.70;99.90;;;;;;8402628;28;20589;-75
2021/06/07 00:59:11;;;;;;;62.03;41.97;;;18.80;99.90;;;;;;8416990;28;20789;-76
2021/06/07 01:03:16;;;;;;;73.03;45.00;;;18.80;99.90;;;;;;8398944;28;20732;-75
2021/06/07 01:07:16;;;;;;;66.60;42.57;;;18.80;99.90;;;;;;8401094;28;20434;-76
2021/06/07 01:11:18;;;;;;;60.93;41.97;;;18.70;99.90;;;;;;8398011;28;20534;-75
2021/06/07 01:15:19;;;;;;;68.80;46.37;;;18.80;99.90;;;;;;8398157;28;20547;-76
2021/06/07 01:19:21;;;;;;;62.10;42.77;;;18.80;99.90;;;;;;8406792;28;20442;-75
2021/06/07 01:23:22;;;;;;;67.50;45.13;;;18.80;99.90;;;;;;8401885;28;20468;-76
2021/06/07 01:27:25;;;;;;;76.73;45.60;;;18.70;99.90;;;;;;8401710;28;20433;-76
2021/06/07 01:31:26;;;;;;;69.40;45.40;;;18.80;99.90;;;;;;8396779;28;20175;-76
2021/06/07 01:35:27;;;;;;;78.73;44.07;;;18.80;99.90;;;;;;8401758;28;20445;-76
2021/06/07 01:39:28;;;;;;;70.20;42.70;;;18.80;99.90;;;;;;8400643;28;20185;-75
2021/06/07 01:43:33;;;;;;;64.63;43.57;;;18.80;99.90;;;;;;8403981;28;20458;-75
2021/06/07 01:47:36;;;;;;;75.23;47.07;;;18.90;99.90;;;;;;8404302;28;20984;-76
2021/06/07 01:51:39;;;;;;;66.77;45.87;;;18.80;99.90;;;;;;8402498;28;20529;-76
2021/06/07 01:55:43;;;;;;;64.77;43.80;;;18.80;99.90;;;;;;8399172;28;20452;-75
2021/06/07 01:59:44;;;;;;;67.20;46.40;;;18.80;99.90;;;;;;8398923;28;20984;-76
2021/06/07 02:03:45;;;;;;;73.27;46.93;;;18.80;99.90;;;;;;8400085;28;21007;-75
2021/06/07 02:07:55;;;;;;;66.17;44.80;;;18.80;99.90;;;;;;8396407;28;20184;-75
2021/06/07 02:11:56;;;;;;;66.83;44.40;;;18.70;99.90;;;;;;8401112;28;20461;-75
2021/06/07 02:16:08;;;;;;;57.17;41.20;;;18.70;99.90;;;;;;8398797;28;20456;-76
2021/06/07 02:20:15;;;;;;;72.50;47.83;;;18.70;99.90;;;;;;8402102;28;20188;-76
2021/06/07 02:24:15;;;;;;;58.33;42.80;;;18.70;99.90;;;;;;8399085;28;20556;-76
2021/06/07 02:28:19;;;;;;;69.63;44.33;;;18.70;99.90;;;;;;8401186;28;20438;-77
2021/06/07 02:32:20;;;;;;;63.77;43.07;;;18.70;99.90;;;;;;8406868;28;20979;-76
2021/06/07 02:36:22;;;;;;;72.23;45.20;;;18.70;99.90;;;;;;8405107;28;20954;-76
2021/06/07 02:40:31;;;;;;;70.80;44.83;;;18.70;99.90;;;;;;8403205;28;20184;-76
2021/06/07 02:44:31;;;;;;;69.10;47.33;;;18.70;99.90;;;;;;8404695;28;20465;-75
2021/06/07 02:48:36;;;;;;;65.17;42.43;;;18.60;99.90;;;;;;8403043;28;20889;-77
2021/06/07 02:52:47;;;;;;;74.83;44.30;;;18.60;99.90;;;;;;8398677;28;20279;-76
2021/06/07 02:56:48;;;;;;;72.93;45.00;;;18.60;99.90;;;;;;8408635;28;20490;-76
2021/06/07 03:00:55;;;;;;;65.10;43.57;;;18.60;99.90;;;;;;8403869;28;20461;-76
2021/06/07 03:04:56;;;;;;;67.97;43.90;;;18.50;99.90;;;;;;8402367;28;20545;-76
2021/06/07 03:08:56;;;;;;;70.07;47.57;;;18.50;99.90;;;;;;8391807;28;20452;-77
2021/06/07 03:13:00;;;;;;;64.97;44.53;;;18.50;99.90;;;;;;8403818;28;20211;-77
2021/06/07 03:17:01;;;;;;;76.33;47.17;;;18.50;99.90;;;;;;8401813;28;20663;-76
2021/06/07 03:21:04;;;;;;;62.50;45.80;;;18.50;99.90;;;;;;8407755;28;21450;-76
2021/06/07 03:25:07;;;;;;;73.03;47.27;;;18.50;99.90;;;;;;8403070;28;20250;-75
2021/06/07 03:29:07;;;;;;;73.30;47.90;;;18.50;99.90;;;;;;8403095;28;20485;-76
2021/06/07 03:33:12;;;;;;;74.90;46.80;;;18.50;99.90;;;;;;8403958;28;20532;-75
2021/06/07 03:37:13;;;;;;;75.37;46.57;;;18.50;99.90;;;;;;8407199;28;20184;-76
2021/06/07 03:41:14;;;;;;;83.23;49.57;;;18.50;99.90;;;;;;8401288;28;20447;-75
2021/06/07 03:45:16;;;;;;;79.70;47.77;;;18.50;99.90;;;;;;8405813;28;20512;-75
2021/06/07 03:49:16;;;;;;;89.60;48.77;;;18.50;99.90;;;;;;8417461;28;20210;-75
2021/06/07 03:53:17;;;;;;;79.03;49.17;;;18.50;99.90;;;;;;8401097;28;20442;-75
2021/06/07 03:57:18;;;;;;;82.27;51.07;;;18.50;99.90;;;;;;8399271;28;20710;-75
2021/06/07 04:01:18;;;;;;;79.40;49.70;;;18.40;99.90;;;;;;8399351;28;20253;-75
2021/06/07 04:05:19;;;;;;;81.50;52.00;;;18.40;99.90;;;;;;8400524;28;20239;-75
2021/06/07 04:09:21;;;;;;;77.77;48.83;;;18.40;99.90;;;;;;8404727;28;20635;-75
2021/06/07 04:13:22;;;;;;;81.50;49.90;;;18.40;99.90;;;;;;8398353;28;20438;-75
2021/06/07 04:17:23;;;;;;;82.80;50.10;;;18.40;99.90;;;;;;8399157;28;20529;-75
2021/06/07 04:21:24;;;;;;;76.57;49.20;;;18.40;99.90;;;;;;8398884;28;20190;-75
2021/06/07 04:25:26;;;;;;;69.10;46.67;;;18.50;99.90;;;;;;8399047;28;20502;-76
2021/06/07 04:29:29;;;;;;;72.90;44.27;;;18.50;99.90;;;;;;8398554;28;20188;-76
2021/06/07 04:33:30;;;;;;;72.33;47.87;;;18.50;99.90;;;;;;8400158;28;20437;-76
2021/06/07 04:37:31;;;;;;;82.70;49.83;;;18.50;99.90;;;;;;8397906;28;20442;-75
2021/06/07 04:41:33;;;;;;;72.00;48.57;;;18.50;99.90;;;;;;8402805;28;20246;-76
2021/06/07 04:45:39;;;;;;;69.57;48.07;;;18.50;99.90;;;;;;8405734;28;20975;-76
2021/06/07 04:49:40;;;;;;;76.43;48.97;;;18.60;99.90;;;;;;8387045;28;21418;-76
2021/06/07 04:53:41;;;;;;;72.47;49.70;;;18.60;99.90;;;;;;8407590;28;21035;-75
2021/06/07 04:57:41;;;;;;;79.67;48.70;;;18.60;99.90;;;;;;8399190;28;20252;-75
2021/06/07 05:01:42;;;;;;;66.30;43.63;;;18.70;99.90;;;;;;8396568;28;20212;-75
2021/06/07 05:05:43;;;;;;;74.87;45.80;;;18.80;99.90;;;;;;8397667;28;20208;-75
2021/06/07 05:09:44;;;;;;;68.87;44.17;;;18.90;99.90;;;;;;8401109;28;20192;-75
2021/06/07 05:13:46;;;;;;;66.57;41.70;;;19.00;99.90;;;;;;8396744;28;20574;-76
2021/06/07 05:17:50;;;;;;;56.93;40.90;;;19.10;99.90;;;;;;8399213;28;20215;-76
2021/06/07 05:21:50;;;;;;;62.43;41.50;;;19.20;99.90;;;;;;8402141;28;20619;-75
2021/06/07 05:25:52;;;;;;;54.07;40.70;;;19.30;99.70;;;;;;8401815;28;20443;-78
2021/06/07 05:29:52;;;;;;;60.60;42.60;;;19.30;99.50;;;;;;8401747;28;20195;-76
2021/06/07 05:33:53;;;;;;;59.37;39.37;;;19.40;99.30;;;;;;8397372;28;20439;-76
2021/06/07 05:37:54;;;;;;;58.90;42.60;;;19.50;99.20;;;;;;8398032;28;21046;-74
2021/06/07 05:41:55;;;;;;;59.57;41.00;;;19.50;99.10;;;;;;8396706;28;20269;-76
2021/06/07 05:45:56;;;;;;;55.27;40.27;;;19.60;99.00;;;;;;8398533;28;20449;-76
2021/06/07 05:49:56;;;;;;;60.60;40.70;;;19.60;99.00;;;;;;8400409;28;20210;-75
2021/06/07 05:53:57;;;;;;;56.67;39.60;;;19.70;98.90;;;;;;8396580;28;20541;-75
2021/06/07 05:58:02;;;;;;;55.10;38.90;;;19.90;98.80;;;;;;8396461;28;20704;-76
2021/06/07 06:02:07;;;;;;;49.40;36.37;;;20.10;98.40;;;;;;8401368;28;20629;-75
2021/06/07 06:06:08;;;;;;;59.10;41.03;;;20.30;98.20;;;;;;8411438;28;20440;-76
2021/06/07 06:10:11;;;;;;;55.40;39.47;;;20.50;97.60;;;;;;8406773;28;20444;-76
2021/06/07 06:14:11;;;;;;;54.17;38.73;;;20.60;97.40;;;;;;8405280;28;20440;-76
2021/06/07 06:18:14;;;;;;;50.87;33.90;;;20.70;97.40;;;;;;8403934;28;20523;-76
2021/06/07 06:22:15;;;;;;;53.40;37.00;;;20.90;97.40;;;;;;8404478;28;20206;-76
2021/06/07 06:26:15;;;;;;;53.47;38.53;;;21.00;97.00;;;;;;8406358;28;20452;-76
2021/06/07 06:30:20;;;;;;;52.57;37.27;;;21.00;96.60;;;;;;8418359;28;20195;-77
2021/06/07 06:34:21;;;;;;;48.47;39.23;;;20.90;96.50;;;;;;8398572;28;20190;-76
2021/06/07 06:38:22;;;;;;;51.17;37.43;;;20.90;96.50;;;;;;8403190;28;20547;-77
2021/06/07 06:42:23;;;;;;;48.20;36.47;;;21.10;96.60;;;;;;8405274;28;20636;-76
2021/06/07 06:46:23;;;;;;;49.90;34.20;;;21.50;95.80;;;;;;8403806;28;21065;-76
2021/06/07 06:50:34;;;;;;;46.80;33.30;;;21.80;95.30;;;;;;8401133;28;20294;-76
2021/06/07 06:54:34;;;;;;;47.00;32.97;;;22.10;94.60;;;;;;8397242;28;20242;-76
2021/06/07 06:58:35;;;;;;;43.10;32.53;;;22.40;94.50;;;;;;8400087;28;20514;-76
2021/06/07 07:02:36;;;;;;;50.87;37.77;;;22.60;94.30;;;;;;8398799;28;20311;-76
2021/06/07 07:06:37;;;;;;;57.03;41.77;;;22.50;94.20;;;;;;8400691;28;20276;-75
2021/06/07 07:10:40;;;;;;;57.73;40.47;;;22.20;94.60;;;;;;8399525;28;20417;-75
2021/06/07 07:14:41;;;;;;;52.47;37.80;;;21.80;95.00;;;;;;8404881;28;20274;-75
2021/06/07 07:18:41;;;;;;;52.17;37.30;;;21.70;95.30;;;;;;8401280;28;20429;-75
2021/06/07 07:22:45;;;;;;;50.97;36.73;;;21.60;95.30;;;;;;8400785;28;20513;-76
2021/06/07 07:26:45;;;;;;;49.30;36.03;;;21.70;95.00;;;;;;8402383;28;20183;-76
2021/06/07 07:30:46;;;;;;;45.27;35.93;;;22.10;94.50;;;;;;8399885;28;20430;-76
2021/06/07 07:34:47;;;;;;;48.70;36.97;;;22.30;94.30;;;;;;8401245;28;20199;-75
2021/06/07 07:38:48;;;;;;;46.53;32.60;;;22.40;94.30;;;;;;8401625;28;21271;-75
2021/06/07 07:42:51;;;;;;;43.43;32.87;;;22.60;93.80;;;;;;8400393;28;21113;-75
2021/06/07 07:46:52;;;;;;;61.43;36.77;;;22.70;93.70;;;;;;8405136;28;20177;-75
2021/06/07 07:50:53;;;;;;;42.13;31.37;;;22.90;93.40;;;;;;8399862;28;20477;-76
2021/06/07 07:54:54;;;;;;;33.97;25.77;;;22.80;93.50;;;;;;8398853;28;20449;-76
2021/06/07 07:58:55;;;;;;;37.57;27.70;;;22.90;93.10;;;;;;8419914;28;20186;-76
2021/06/07 08:02:58;;;;;;;33.10;27.20;;;22.90;92.90;;;;;;8420644;28;20456;-77
2021/06/07 08:07:01;;;;;;;34.03;26.23;;;23.00;92.60;;;;;;8420747;28;20413;-76
2021/06/07 08:11:03;;;;;;;37.30;27.70;;;23.00;92.00;;;;;;8416762;28;20915;-76
2021/06/07 08:15:05;;;;;;;33.03;24.87;;;22.90;92.40;;;;;;8410134;28;20463;-76
2021/06/07 08:19:06;;;;;;;37.70;28.23;;;23.00;92.40;;;;;;8417583;28;20444;-76
2021/06/07 08:23:07;;;;;;;33.00;27.30;;;23.00;91.90;;;;;;8406257;28;20543;-76
2021/06/07 08:27:08;;;;;;;37.73;30.20;;;23.10;92.20;;;;;;8410936;28;20655;-76
2021/06/07 08:31:08;;;;;;;39.30;30.47;;;23.30;92.10;;;;;;8423402;28;20189;-76
2021/06/07 08:35:12;;;;;;;38.70;28.77;;;23.50;92.00;;;;;;8414557;28;20191;-77
2021/06/07 08:39:12;;;;;;;35.50;28.40;;;23.80;91.70;;;;;;8411770;28;20186;-76
2021/06/07 08:43:13;;;;;;;35.40;27.50;;;23.80;91.00;;;;;;8409953;28;20441;-76
2021/06/07 08:47:14;;;;;;;36.73;27.17;;;23.80;90.90;;;;;;8403176;28;20171;-76
2021/06/07 08:51:15;;;;;;;52.37;30.80;;;23.90;91.00;;;;;;8416579;28;20174;-76
2021/06/07 08:55:19;;;;;;;42.30;30.33;;;23.90;90.90;;;;;;8409769;28;20193;-76
2021/06/07 08:59:20;;;;;;;38.20;30.23;;;23.90;91.00;;;;;;8406580;28;20265;-76
2021/06/07 09:03:23;;;;;;;48.57;33.57;;;24.00;91.20;;;;;;8407009;28;20467;-76
2021/06/07 09:07:26;;;;;;;50.57;36.40;;;24.00;90.80;;;;;;8416002;28;20256;-76
2021/06/07 09:11:27;;;;;;;53.80;35.77;;;23.90;90.70;;;;;;8406857;28;20943;-76
2021/06/07 09:15:50;;;;;;;48.00;35.70;;;23.70;90.80;;;;;;8414842;28;20995;-76
2021/06/07 09:20:14;;;;;;;48.37;34.03;;;23.90;90.80;;;;;;8409887;28;20208;-75
2021/06/07 09:24:15;;;;;;;43.83;30.00;;;23.90;90.60;;;;;;8411777;28;20467;-75
2021/06/07 09:28:24;;;;;;;42.13;32.70;;;24.10;90.10;;;;;;8412346;28;20433;-75
2021/06/07 09:32:26;;;;;;;42.93;30.80;;;24.30;90.10;;;;;;8412097;28;20444;-76
2021/06/07 09:36:32;;;;;;;35.30;26.93;;;24.50;89.80;;;;;;8416884;28;20439;-77
2021/06/07 09:40:32;;;;;;;46.70;30.17;;;24.60;89.10;;;;;;8420169;28;20448;-75
2021/06/07 09:44:54;;;;;;;37.13;27.50;;;24.80;88.20;;;;;;8421203;28;20562;-75
2021/06/07 09:49:10;;;;;;;40.80;28.27;;;24.90;87.40;;;;;;8415723;28;20287;-76
2021/06/07 09:53:31;;;;;;;53.93;34.93;;;25.10;87.70;;;;;;8418762;28;20440;-77
2021/06/07 09:57:51;;;;;;;48.53;33.90;;;25.10;86.90;;;;;;8420675;28;20442;-76
2021/06/07 10:01:51;;;;;;;54.43;34.20;;;25.00;87.90;;;;;;8409020;28;20796;-75
2021/06/07 10:05:58;;;;;;;46.70;33.47;;;25.00;87.70;;;;;;8417668;28;20825;-75
2021/06/07 10:10:20;;;;;;;51.90;34.13;;;25.10;87.40;;;;;;8406705;28;20581;-75
2021/06/07 10:14:22;;;;;;;59.57;37.13;;;24.90;87.30;;;;;;8407137;28;20443;-76
2021/06/07 10:18:25;;;;;;;68.47;42.00;;;24.60;87.40;;;;;;8418105;28;20475;-75
2021/06/07 10:22:26;;;;;;;60.00;37.93;;;24.30;88.10;;;;;;8416269;28;20463;-75
2021/06/07 10:26:26;;;;;;;51.73;35.17;;;24.40;88.40;;;;;;8419097;28;20435;-75
2021/06/07 10:30:29;;;;;;;52.40;34.30;;;24.90;86.50;;;;;;8417618;28;20177;-76
2021/06/07 10:34:48;;;;;;;56.03;35.33;;;25.30;86.00;;;;;;8416828;28;20454;-76
2021/06/07 10:38:51;;;;;;;55.47;36.47;;;25.50;85.30;;;;;;8414791;28;20631;-75
2021/06/07 10:42:57;;;;;;;65.80;37.50;;;25.30;84.50;;;;;;8413684;28;20827;-75
2021/06/07 10:47:04;;;;;;;57.83;38.07;;;25.00;85.30;;;;;;8413421;28;20435;-76
2021/06/07 10:51:08;;;;;;;60.00;36.40;;;24.60;86.80;;;;;;8409010;28;20446;-75
2021/06/07 10:55:12;;;;;;;58.47;38.00;;;24.10;87.00;;;;;;8414462;28;21107;-75
2021/06/07 10:59:14;;;;;;;60.27;37.13;;;23.70;88.40;;;;;;8416144;28;20783;-76
2021/06/07 11:03:16;;;;;;;47.80;33.37;;;23.40;89.30;;;;;;8410534;28;20446;-76
2021/06/07 11:07:20;;;;;;;61.80;39.17;;;23.40;90.10;;;;;;8419010;28;20418;-75
2021/06/07 11:11:22;;;;;;;59.33;40.17;;;23.40;90.00;;;;;;8414535;28;20822;-76
2021/06/07 11:15:36;;;;;;;64.43;41.73;;;23.40;90.40;;;;;;8416943;28;20529;-76
2021/06/07 11:19:52;;;;;;;60.07;39.50;;;23.50;90.60;;;;;;8412763;28;20483;-76
2021/06/07 11:23:53;;;;;;;71.43;40.83;;;23.50;90.70;;;;;;8417974;28;20959;-75
2021/06/07 11:27:54;;;;;;;64.43;42.33;;;23.50;90.70;;;;;;8415921;28;20935;-76
2021/06/07 11:32:08;;;;;;;62.53;38.07;;;23.30;90.50;;;;;;8411779;28;20179;-76
2021/06/07 11:36:48;;;;;;;58.73;38.27;;;23.30;90.80;;;;;;8419246;28;21033;-77
2021/06/07 11:40:48;;;;;;;64.83;41.70;;;23.20;91.20;;;;;;8412448;28;20414;-75
2021/06/07 11:44:53;;;;;;;66.10;42.80;;;23.20;91.00;;;;;;8417747;28;20482;-75
2021/06/07 11:49:14;;;;;;;65.30;43.97;;;23.30;91.20;;;;;;8417677;28;20702;-76
2021/06/07 11:53:17;;;;;;;61.60;42.27;;;23.40;91.20;;;;;;8412702;28;20419;-76
2021/06/07 11:57:20;;;;;;;72.00;44.20;;;23.50;91.20;;;;;;8411852;28;20411;-77
2021/06/07 12:01:21;;;;;;;65.10;40.87;;;23.50;91.00;;;;;;8415534;28;20517;-76
2021/06/07 12:05:21;;;;;;;70.63;42.87;;;23.70;90.70;;;;;;8415567;28;20472;-77
2021/06/07 12:09:26;;;;;;;59.07;38.77;;;23.70;90.70;;;;;;8419848;28;20212;-76
2021/06/07 12:13:29;;;;;;;63.83;41.73;;;23.70;90.70;;;;;;8417923;28;24140;-75
2021/06/07 12:17:29;;;;;;;62.07;39.33;;;23.60;90.80;;;;;;8416598;28;20422;-75
2021/06/07 12:21:31;;;;;;;64.10;39.47;;;23.50;91.10;;;;;;8409909;28;20410;-75
2021/06/07 12:29:56;;;;;;;52.13;35.40;;;23.60;91.00;;;;;;8399796;28;20438;-75
2021/06/07 12:33:56;;;;;;;58.33;35.50;;;23.70;90.60;;;;;;8444208;28;20418;-75
2021/06/07 12:38:05;;;;;;;47.77;28.63;;;23.80;91.00;;;;;;8433858;28;20760;-75
2021/06/07 12:42:08;;;;;;;31.47;24.73;;;23.90;90.20;;;;;;8410961;28;20186;-76
2021/06/07 12:46:09;;;;;;;30.07;21.97;;;24.20;89.90;;;;;;8413341;28;20403;-76
2021/06/07 12:50:12;;;;;;;36.87;24.27;;;24.30;89.40;;;;;;8410590;28;20525;-76
2021/06/07 12:54:12;;;;;;;53.03;35.17;;;24.40;89.10;;;;;;8409672;28;20443;-76
2021/06/07 12:58:33;;;;;;;54.37;36.30;;;24.30;89.30;;;;;;8413800;28;20444;-76
2021/06/07 13:02:34;;;;;;;52.30;30.90;;;24.10;89.70;;;;;;8398884;28;20209;-76
2021/06/07 13:06:45;;;;;;;50.57;35.00;;;24.00;90.10;;;;;;8412809;28;20415;-77
2021/06/07 13:10:57;;;;;;;36.87;27.27;;;24.00;90.50;;;;;;8410265;28;20178;-75
2021/06/07 13:14:57;;;;;;;42.30;28.90;;;24.20;90.10;;;;;;8413870;28;20576;-77
2021/06/07 13:19:03;;;;;;;43.10;27.73;;;24.40;88.80;;;;;;8405118;28;20568;-76
2021/06/07 13:23:04;;;;;;;51.63;30.37;;;24.50;88.90;;;;;;8408601;28;20205;-78
2021/06/07 13:27:09;;;;;;;47.40;31.20;;;24.70;89.10;;;;;;8415445;28;20493;-76
2021/06/07 13:31:10;;;;;;;53.17;33.37;;;24.80;88.30;;;;;;8412066;28;20436;-76
2021/06/07 13:35:12;;;;;;;48.90;31.47;;;24.70;88.70;;;;;;8407930;28;20474;-76
2021/06/07 13:39:13;;;;;;;46.63;30.90;;;24.50;89.60;;;;;;8407091;28;20634;-77
2021/06/07 13:43:20;;;;;;;55.00;33.50;;;24.30;89.50;;;;;;8415056;28;21017;-76
2021/06/07 13:48:21;;;;;;;51.97;35.67;;;24.30;90.10;;;;;;8421684;27;21113;-76
2021/06/07 13:52:22;;;;;;;48.03;33.13;;;24.30;90.00;;;;;;8404073;28;21118;-76
2021/06/07 13:56:28;;;;;;;53.50;33.90;;;24.40;89.30;;;;;;8393644;28;20676;-77
2021/06/07 14:00:50;;;;;;;43.40;30.50;;;24.40;89.60;;;;;;8406934;28;20214;-76
2021/06/07 14:04:51;;;;;;;39.57;24.53;;;24.50;89.80;;;;;;8406814;28;21319;-76
2021/06/07 14:08:56;;;;;;;34.43;23.10;;;24.60;87.60;;;;;;8410618;28;21344;-77
2021/06/07 14:12:58;;;;;;;26.70;21.53;;;24.90;86.80;;;;;;8402369;28;20193;-76
2021/06/07 14:16:58;;;;;;;27.03;21.10;;;25.10;86.00;;;;;;8402213;28;20451;-76
2021/06/07 14:21:00;;;;;;;33.13;21.40;;;25.20;85.30;;;;;;8403644;28;20648;-75
2021/06/07 14:25:01;;;;;;;28.17;24.03;;;25.20;84.70;;;;;;8393708;28;20247;-76
2021/06/07 14:29:03;;;;;;;32.63;25.07;;;25.30;85.70;;;;;;8406102;28;20474;-77
2021/06/07 14:33:04;;;;;;;28.40;23.40;;;25.40;84.90;;;;;;8398446;28;20533;-76
2021/06/07 14:37:04;;;;;;;33.20;23.53;;;25.50;84.20;;;;;;8405522;28;20444;-75
2021/06/07 14:41:07;;;;;;;21.57;17.67;;;25.70;84.40;;;;;;8393844;28;21168;-77
2021/06/07 14:45:08;;;;;;;23.00;16.17;;;25.80;83.10;;;;;;8395323;28;20244;-76
2021/06/07 14:49:09;;;;;;;19.50;15.23;;;26.00;81.60;;;;;;8394048;28;21000;-75
2021/06/07 14:53:10;;;;;;;20.40;15.83;;;26.00;80.80;;;;;;8417934;28;20444;-77
2021/06/07 14:57:11;;;;;;;20.50;14.60;;;26.00;80.90;;;;;;8384639;28;20473;-75
2021/06/07 15:01:11;;;;;;;16.87;14.90;;;26.00;80.30;;;;;;8368711;28;20189;-76
2021/06/07 15:05:14;;;;;;;24.20;16.30;;;26.00;80.60;;;;;;8369045;28;20203;-76
2021/06/07 15:09:14;;;;;;;20.43;15.10;;;26.10;79.80;;;;;;8379516;28;20274;-77
2021/06/07 15:13:15;;;;;;;20.73;14.87;;;26.10;80.80;;;;;;8380030;28;20448;-76
2021/06/07 15:17:18;;;;;;;20.60;15.20;;;26.20;79.90;;;;;;8370714;28;20376;-76
2021/06/07 15:21:20;;;;;;;19.47;14.87;;;26.20;79.40;;;;;;8367277;28;20523;-77
2021/06/07 15:25:22;;;;;;;18.60;15.57;;;26.20;78.60;;;;;;8379160;28;20464;-76
2021/06/07 15:29:23;;;;;;;28.07;15.47;;;26.10;79.20;;;;;;8372397;28;20445;-77
2021/06/07 15:33:25;;;;;;;17.97;14.80;;;26.10;78.80;;;;;;8374215;28;20445;-76
2021/06/07 15:37:36;;;;;;;21.83;16.53;;;25.90;77.70;;;;;;8389094;28;20272;-77
2021/06/07 15:41:37;;;;;;;20.87;15.80;;;25.60;78.60;;;;;;8385325;28;21139;-73
2021/06/07 15:45:39;;;;;;;20.20;17.60;;;25.60;79.90;;;;;;8380414;28;22129;-76
2021/06/07 15:49:40;;;;;;;23.83;16.20;;;25.50;80.00;;;;;;8390735;28;20219;-77
2021/06/07 15:53:41;;;;;;;21.23;14.43;;;25.50;80.30;;;;;;8366468;28;20446;-75
2021/06/07 15:57:42;;;;;;;18.70;15.97;;;25.50;80.30;;;;;;8372863;28;20456;-75
2021/06/07 16:01:42;;;;;;;17.37;15.57;;;25.50;79.80;;;;;;8373292;28;20640;-76
2021/06/07 16:05:44;;;;;;;20.10;16.70;;;25.40;79.20;;;;;;8377264;28;20202;-75
2021/06/07 16:09:45;;;;;;;27.90;16.67;;;25.30;79.50;;;;;;8373359;28;20569;-76
2021/06/07 16:13:46;;;;;;;23.93;15.77;;;25.40;79.30;;;;;;8375353;28;20530;-76
2021/06/07 16:18:02;;;;;;;20.63;17.07;;;25.40;79.00;;;;;;8377649;28;20291;-74
2021/06/07 16:22:09;;;;;;;23.30;18.30;;;25.30;79.70;;;;;;8379167;28;20495;-75
2021/06/07 16:26:10;;;;;;;22.80;17.23;;;25.30;79.80;;;;;;8375780;28;20490;-75
2021/06/07 16:30:11;;;;;;;26.73;20.23;;;25.30;79.60;;;;;;8383481;28;20640;-76
2021/06/07 16:34:14;;;;;;;23.23;17.53;;;25.20;80.20;;;;;;8386006;28;20463;-76
2021/06/07 16:38:16;;;;;;;24.73;18.43;;;25.30;80.80;;;;;;8388328;28;20474;-76
2021/06/07 16:42:18;;;;;;;25.37;19.13;;;25.20;81.10;;;;;;8384686;28;20445;-77
2021/06/07 16:46:19;;;;;;;27.17;18.77;;;25.10;80.70;;;;;;8384564;28;20469;-77
2021/06/07 16:50:20;;;;;;;25.60;18.33;;;25.00;81.10;;;;;;8382704;28;20499;-77
2021/06/07 16:54:21;;;;;;;20.60;16.30;;;25.00;80.90;;;;;;8379681;28;20178;-78
2021/06/07 16:58:21;;;;;;;22.70;17.80;;;25.00;80.80;;;;;;8377684;28;20444;-77
2021/06/07 17:02:22;;;;;;;25.40;18.10;;;24.90;80.70;;;;;;8390447;28;20290;-77
2021/06/07 17:06:22;;;;;;;26.57;17.50;;;24.60;81.40;;;;;;8375659;28;20237;-78
2021/06/07 17:10:25;;;;;;;24.37;18.47;;;24.50;81.80;;;;;;8377832;28;20273;-78
2021/06/07 17:14:34;;;;;;;24.53;19.27;;;24.30;81.90;;;;;;8386899;28;20183;-78
2021/06/07 17:18:36;;;;;;;28.63;20.10;;;24.30;83.00;;;;;;8370727;28;20428;-77
2021/06/07 17:22:37;;;;;;;31.30;19.57;;;24.20;82.80;;;;;;8370187;28;20466;-77
2021/06/07 17:26:38;;;;;;;25.77;19.87;;;24.10;83.00;;;;;;8366753;28;20439;-77
2021/06/07 17:30:39;;;;;;;23.33;19.43;;;24.10;82.70;;;;;;8368856;28;20186;-76
2021/06/07 17:34:41;;;;;;;32.07;20.37;;;24.20;83.10;;;;;;8375825;28;20309;-76
2021/06/07 17:38:43;;;;;;;23.10;17.90;;;24.20;82.90;;;;;;8371834;28;23990;-77
2021/06/07 17:42:44;;;;;;;25.23;17.63;;;24.20;83.00;;;;;;8367149;28;20771;-76
2021/06/07 17:46:44;;;;;;;22.70;17.97;;;24.20;82.50;;;;;;8375017;28;20229;-76
2021/06/07 17:50:46;;;;;;;20.37;16.80;;;24.30;82.30;;;;;;8367722;28;20456;-77
2021/06/07 17:54:47;;;;;;;25.17;18.20;;;24.30;82.80;;;;;;8366786;28;20278;-77
2021/06/07 17:58:48;;;;;;;22.90;17.93;;;24.20;82.90;;;;;;8368067;28;20449;-77
2021/06/07 18:02:49;;;;;;;19.93;16.43;;;24.00;83.90;;;;;;8371376;28;20445;-76
2021/06/07 18:06:53;;;;;;;26.90;17.87;;;23.80;84.60;;;;;;8370835;28;20616;-76
2021/06/07 18:10:57;;;;;;;20.73;16.23;;;23.70;84.90;;;;;;8377153;28;20421;-78
2021/06/07 18:14:59;;;;;;;20.03;16.20;;;23.60;86.10;;;;;;8374975;28;20414;-77
2021/06/07 18:19:02;;;;;;;19.00;17.00;;;23.50;86.40;;;;;;8373510;28;20604;-78
2021/06/07 18:23:03;;;;;;;20.30;16.40;;;23.40;86.60;;;;;;8368861;28;20480;-78
2021/06/07 18:27:04;;;;;;;18.30;14.83;;;23.30;86.20;;;;;;8370466;28;20468;-78
2021/06/07 18:31:05;;;;;;;22.30;15.77;;;23.20;86.00;;;;;;8373307;28;20418;-77
2021/06/07 18:35:06;;;;;;;16.03;14.33;;;23.10;86.80;;;;;;8384008;28;20848;-75
2021/06/07 18:39:07;;;;;;;26.43;15.40;;;23.00;87.60;;;;;;8365256;28;20202;-75
2021/06/07 18:43:07;;;;;;;19.90;15.97;;;22.90;88.60;;;;;;8373627;28;20487;-75
2021/06/07 18:47:08;;;;;;;16.27;14.20;;;22.70;88.90;;;;;;8375886;28;20221;-76
2021/06/07 18:51:09;;;;;;;24.47;16.37;;;22.60;89.10;;;;;;8382080;28;20639;-76
2021/06/07 18:55:10;;;;;;;16.43;14.50;;;22.40;89.40;;;;;;8379415;28;20601;-75
2021/06/07 18:59:11;;;;;;;20.40;16.40;;;22.20;90.00;;;;;;8387252;28;20188;-76
2021/06/07 19:03:14;;;;;;;16.87;14.97;;;22.10;90.40;;;;;;8386007;28;20471;-76
2021/06/07 19:07:15;;;;;;;21.57;15.53;;;22.00;90.50;;;;;;8378285;28;20559;-76
2021/06/07 19:11:20;;;;;;;19.77;16.27;;;21.80;90.60;;;;;;8385770;28;20465;-77
2021/06/07 19:15:22;;;;;;;20.50;15.50;;;21.80;90.80;;;;;;8374277;28;20190;-76
2021/06/07 19:19:23;;;;;;;18.47;15.70;;;21.70;91.00;;;;;;8386128;28;20441;-77
2021/06/07 19:23:23;;;;;;;19.53;17.43;;;21.60;90.90;;;;;;8379256;28;20533;-76
2021/06/07 19:27:24;;;;;;;20.03;16.10;;;21.50;91.00;;;;;;8378256;28;20214;-76
2021/06/07 19:31:25;;;;;;;17.63;15.13;;;21.40;91.10;;;;;;8372645;28;20196;-77
2021/06/07 19:35:25;;;;;;;21.07;17.83;;;21.30;91.40;;;;;;8379338;28;20183;-76
2021/06/07 19:39:26;;;;;;;18.23;15.40;;;21.20;91.50;;;;;;8381700;28;20189;-76
2021/06/07 19:43:28;;;;;;;20.97;17.73;;;21.10;91.90;;;;;;8373703;28;20191;-76
2021/06/07 19:47:28;;;;;;;18.50;15.27;;;21.00;91.90;;;;;;8372661;28;20483;-76
2021/06/07 19:51:29;;;;;;;17.93;15.40;;;20.90;92.20;;;;;;8375280;28;20186;-76
2021/06/07 19:59:46;;;;;;;19.27;17.20;;;20.70;92.80;;;;;;8371535;28;20253;-77
2021/06/07 20:03:47;;;;;;;21.87;17.50;;;20.60;93.10;;;;;;8380278;28;20444;-77
2021/06/07 20:07:50;;;;;;;23.17;17.17;;;20.50;93.30;;;;;;8370449;28;20465;-77
2021/06/07 20:11:51;;;;;;;24.23;17.60;;;20.50;93.50;;;;;;8369075;28;20202;-77
2021/06/07 20:15:54;;;;;;;21.97;19.53;;;20.50;93.80;;;;;;8371715;28;20476;-77
2021/06/07 20:19:57;;;;;;;24.93;19.57;;;20.50;93.80;;;;;;8393464;28;20183;-77
2021/06/07 20:23:59;;;;;;;19.67;16.70;;;20.60;93.70;;;;;;8384110;28;20447;-77
2021/06/07 20:27:59;;;;;;;21.33;18.00;;;20.50;93.90;;;;;;8377024;28;20465;-77
2021/06/07 20:32:00;;;;;;;25.57;18.80;;;20.50;93.70;;;;;;8373235;28;20567;-76
2021/06/07 20:36:01;;;;;;;19.70;17.03;;;20.50;94.00;;;;;;8377757;28;20236;-76
2021/06/07 20:40:02;;;;;;;24.77;19.40;;;20.50;93.90;;;;;;8376729;28;20202;-76
2021/06/07 20:44:03;;;;;;;18.90;16.40;;;20.50;93.80;;;;;;8380131;28;20188;-77